Flight Track Log - Related Links

Times and Time Zones

All times are in EDT time to prevent confusion due to time zone crossing. See the SWA265 flight status page for this flight to view local times or setup timezone preferences in your user account.


Time Position Orientation Groundspeed Altitude Reporting Facility
EDT Latitude Longitude Course Direction KTS MPH feet Rate Location/Type
Thu 08:38:32 AM 35.0403 -106.5853 149° Southeast 138 159 6,400  Level Albuquerque Center
Thu 08:38:52 AM 35.0264 -106.5750 149° Southeast 178 205 6,700 2,074 Climbing Albuquerque Center
Thu 08:39:53 AM 35.0136 -106.6394 256° West 234 269 9,200 2,361 Climbing Albuquerque Center
Thu 08:40:54 AM 35.0417 -106.7242 292° West 255 293 11,500 2,926 Climbing Albuquerque Center
Thu 08:41:54 AM 35.0708 -106.8283 289° West 312 359 15,100 3,223 Climbing Albuquerque Center
Thu 08:42:55 AM 35.0817 -106.9361 277° West 333 383 18,000 3,074 Climbing Albuquerque Center
Thu 08:43:55 AM 35.0969 -107.0725 278° West 349 402 21,300 3,074 Climbing Albuquerque Center
Thu 08:44:56 AM 35.1086 -107.1908 277° West 363 418 24,200 2,430 Climbing Albuquerque Center
Thu 08:45:56 AM 35.1197 -107.3025 277° West 374 430 26,200 1,884 Climbing Albuquerque Center
Thu 08:46:57 AM 35.1339 -107.4322 278° West 381 438 28,000 1,918 Climbing Albuquerque Center
Thu 08:47:58 AM 35.1508 -107.5878 278° West 395 455 30,100 2,132 Climbing Albuquerque Center
Thu 08:48:58 AM 35.1647 -107.7186 277° West 401 461 32,300 2,033 Climbing Albuquerque Center
Thu 08:49:59 AM 35.1772 -107.8458 277° West 396 456 34,200 1,835 Climbing Albuquerque Center
Thu 08:50:59 AM 35.1928 -107.9947 277° West 395 455 36,000 893 Climbing Albuquerque Center
Thu 08:52:00 AM 35.2056 -108.1217 277° West 393 452 36,000  Level Albuquerque Center
Thu 08:53:01 AM 35.2178 -108.2475 277° West 390 449 36,000  Level Albuquerque Center
Thu 08:54:01 AM 35.2328 -108.3939 277° West 389 448 36,000  Level Albuquerque Center
Thu 08:55:02 AM 35.2453 -108.5192 277° West 387 445 36,000  Level Albuquerque Center
Thu 08:56:03 AM 35.2575 -108.6444 277° West 387 445 36,000  Level Albuquerque Center
Thu 08:57:03 AM 35.2717 -108.7917 277° West 387 445 36,000  Level Albuquerque Center
Thu 08:58:04 AM 35.2836 -108.9183 277° West 389 448 36,000  Level Albuquerque Center
Thu 08:59:05 AM 35.2950 -109.0428 276° West 386 444 36,000  Level Albuquerque Center
Thu 09:00:05 AM 35.3064 -109.1692 276° West 388 447 36,000  Level Albuquerque Center
Thu 09:01:06 AM 35.3203 -109.3183 277° West 391 450 36,000  Level Albuquerque Center
Thu 09:02:06 AM 35.3319 -109.4453 276° West 390 449 36,000  Level Albuquerque Center
Thu 09:03:07 AM 35.3428 -109.5689 276° West 385 443 36,000  Level Albuquerque Center
Thu 09:04:08 AM 35.3553 -109.7147 276° West 384 442 36,000  Level Albuquerque Center
Thu 09:05:09 AM 35.3653 -109.8428 276° West 391 450 36,000  Level Albuquerque Center
Thu 09:06:09 AM 35.3747 -109.9678 275° West 387 445 36,000  Level Albuquerque Center
Thu 09:07:10 AM 35.3869 -110.1133 276° West 387 445 36,000  Level Albuquerque Center
Thu 09:08:11 AM 35.3964 -110.2425 275° West 393 452 36,000  Level Albuquerque Center
Thu 09:09:12 AM 35.4053 -110.3700 275° West 393 452 36,000  Level Albuquerque Center
Thu 09:10:12 AM 35.4181 -110.5189 276° West 393 452 36,000  Level Albuquerque Center
Thu 09:11:13 AM 35.4289 -110.6461 276° West 391 450 36,000  Level Albuquerque Center
Thu 09:12:14 AM 35.4383 -110.7742 275° West 394 453 36,000  Level Albuquerque Center
Thu 09:13:15 AM 35.4503 -110.9253 276° West 397 457 36,000  Level Albuquerque Center
Thu 09:14:16 AM 35.4600 -111.0519 275° West 393 452 36,000  Level Albuquerque Center
Thu 09:15:17 AM 35.4697 -111.1786 275° West 391 450 36,000  Level Albuquerque Center
Thu 09:16:17 AM 35.4806 -111.3264 275° West 389 448 36,000  Level Albuquerque Center
Thu 09:17:18 AM 35.4900 -111.4506 275° West 392 451 36,000 -344 Level Albuquerque Center
Thu 09:18:19 AM 35.5008 -111.5853 276° West 397 457 35,300 -1,328 Descending Albuquerque Center
Thu 09:19:20 AM 35.5089 -111.7192 274° West 396 456 33,300 -2,164 Descending Albuquerque Center
Thu 09:20:21 AM 35.5186 -111.8522 275° West 394 453 30,900 -1,623 Descending Albuquerque Center
Thu 09:21:22 AM 35.5283 -111.9839 275° West 391 450 30,000 -689 Descending Albuquerque Center
Thu 09:22:23 AM 35.5372 -112.1197 275° West 398 458 29,500 -628 Descending Albuquerque Center
Thu 09:22:48 AM 35.5411 -112.1739 275° West 399 459 29,100 -984 Descending Los Angeles Center
Thu 09:23:24 AM 35.5464 -112.2542 275° West 397 457 28,500 -1,113 Descending Albuquerque Center
Thu 09:24:25 AM 35.5564 -112.4144 274° West 395 455 27,300 -1,116 Descending Albuquerque Center
Thu 09:24:50 AM 35.5603 -112.4694 275° West 396 456 26,900 -977 Descending Los Angeles Center
Thu 09:25:51 AM 35.5683 -112.5992 274° West 388 447 25,900 -934 Descending Los Angeles Center
Thu 09:26:52 AM 35.5767 -112.7283 275° West 379 436 25,000 -1,033 Descending Los Angeles Center
Thu 09:27:53 AM 35.5844 -112.8553 274° West 371 427 23,800 -1,082 Descending Los Angeles Center
Thu 09:28:54 AM 35.5911 -112.9597 275° West 341 392 22,800 -1,082 Descending Los Angeles Center
Thu 09:29:55 AM 35.5983 -113.0958 274° West 332 382 21,600 -1,082 Descending Los Angeles Center
Thu 09:30:56 AM 35.6058 -113.2058 275° West 325 374 20,600 -984 Descending Los Angeles Center
Thu 09:31:57 AM 35.6119 -113.3172 274° West 327 376 19,600 -984 Descending Los Angeles Center
Thu 09:32:58 AM 35.6183 -113.4275 274° West 328 377 18,600 -787 Descending Los Angeles Center
Thu 09:33:59 AM 35.6242 -113.5378 274° West 326 375 18,000 -787 Descending Los Angeles Center
Thu 09:35:00 AM 35.6383 -113.6439 279° West 319 367 17,000 -889 Descending Los Angeles Center
Thu 09:36:14 AM 35.6578 -113.7725 281° West 319 367 16,000 -844 Descending Los Angeles Center
Thu 09:37:15 AM 35.6747 -113.8903 280° West 345 397 15,100 -984 Descending Los Angeles Center
Thu 09:38:16 AM 35.6900 -114.0067 279° West 347 399 14,000 -984 Descending Los Angeles Center
Thu 09:39:17 AM 35.7064 -114.1219 280° West 343 395 13,100 -927 Descending Los Angeles Center
Thu 09:40:19 AM 35.7217 -114.2400 279° West 338 389 12,100 -537 Descending Los Angeles Center
Thu 09:41:20 AM 35.7394 -114.3686 280° West 312 359 12,000 -49 Descending Los Angeles Center
Thu 09:42:21 AM 35.7508 -114.4486 280° West 299 344 12,000 -750 Level Los Angeles Center
Thu 09:42:40 AM 35.7594 -114.4978 282° West 300 345 11,000 -1,645 Descending Los Angeles Center
Thu 09:43:23 AM 35.7667 -114.5714 277° West 302 348 10,300 -522 Descending Los Angeles Center
Thu 09:44:35 AM 35.7550 -114.6903 263° West 307 353 10,000 -148 Descending Los Angeles Center
Thu 09:45:25 AM 35.7314 -114.7694 250° West 307 353 10,000  Level Los Angeles Center
Thu 09:46:37 AM 35.6942 -114.8936 250° West 309 356 10,000  Level Los Angeles Center
Thu 09:47:28 AM 35.6736 -114.9667 251° West 306 352 10,000 -319 Level Los Angeles Center
Thu 09:48:30 AM 35.6608 -115.0647 261° West 296 341 9,400 -488 Descending Los Angeles Center
Thu 09:49:31 AM 35.6617 -115.1586 271° West 283 326 9,000 -195 Descending Los Angeles Center
Thu 09:50:33 AM 35.6967 -115.2314 301° West 266 306 9,000 -462 Level Los Angeles Center
Thu 09:51:41 AM 35.7697 -115.2689 337° Northwest 224 258 8,000 -878 Descending Los Angeles Center
Thu 09:52:36 AM 35.8242 -115.2958 338° Northwest 228 262 7,200 -672 Descending Los Angeles Center
Thu 09:53:37 AM 35.8778 -115.2833 11° North 215 247 6,700 -732 Descending Los Angeles Center
Thu 09:54:39 AM 35.9253 -115.2550 26° Northeast 199 229 5,700 -1,134 Descending Los Angeles Center
Thu 09:55:44 AM 35.9803 -115.2236 25° Northeast 188 216 4,300 -1,087 Descending Los Angeles Center
Thu 09:56:46 AM 36.0208 -115.2022 23° Northeast 157 181 3,400 -750 Descending Los Angeles Center
Thu 09:57:44 AM 36.0489 -115.1833 29° Northeast 121 139 2,800 -403 Descending Los Angeles Center
Thu 09:58:45 AM 36.0789 -115.1683 22° Northeast 121 139 2,600 -197 Descending Los Angeles Center

Login

Don't have an account? Register now (free) for customized features, flight alerts, and more!